Aérodrome :







RETROUVEZ-NOUS SUR...

 
LOGIN :

S'inscrire | Disclaimer

   EN    FR    IT 

 









Légende :    VFR   VFR Marginal   IFR   IFR Intensif   IFR Très Intensif
Visi : 
Plafond : 
>= 8 km
>= 3000ft
5 à 8 km
1000 à 3000 ft
1500m à 5 km
500 à 1000 ft
800 à 1500m
200 à 500 ft
< 800m
< 200 ft
Symboles :   Orages  Brouillard  Fortes neiges  Fortes précipitations  Vent > 20 kt






- Altitude de l'aérodrome : 70 ft


KIWI - Wiscasset

DERNIER METAR :
  • 172053Z AUTO 30005KT 10SM CLR M11/M19 A3049 RMK AO2 SLP324 T11061189 53015

METARs EXPIRÉS :
  • 171953Z AUTO VRB06KT 10SM CLR M10/M18 A3046 RMK AO2 SLP317 T11001183
  • 171853Z AUTO VRB06KT 10SM CLR M10/M18 A3044 RMK AO2 SLP310 T11001183
  • 171753Z AUTO VRB05G15KT 10SM CLR M11/M19 A3044 RMK AO2 SLP309 T11061194 11106 21150 58001

TAF N/A



MET'MAP, la Météo Aéronautique d'un coup d'oeil ! - Copyright ORBIFLY Décembre 2007 - Disclaimer

ORBIFLY MET'MAP TEAM :

Programmation & Développement : Alexandra Zaïnal
Sur une idée originale de : Baudouin d'Aumeries
Assistance à la programmation : Marc-Olivier Méhu
Soutien technique & logistique : Manuel Goepfert

Contact : metmap@orbifly.com




SOURCES & CREDITS :

   NOAA